createdAt,value
2023-05-12T00:03:59.287Z,46.05
2023-05-12T00:14:07.108Z,46.08
2023-05-12T00:24:13.943Z,46.15
2023-05-12T00:34:21.196Z,46.15
2023-05-12T00:44:28.535Z,46.14
2023-05-12T00:54:35.632Z,46.09
2023-05-12T01:04:42.508Z,46.08
2023-05-12T01:14:49.788Z,46.10
2023-05-12T01:24:56.380Z,46.13
2023-05-12T01:35:03.998Z,46.14
2023-05-12T01:45:10.626Z,46.12
2023-05-12T01:55:18.139Z,46.08
2023-05-12T02:05:25.027Z,46.06
2023-05-12T02:15:31.820Z,46.10
2023-05-12T02:25:38.731Z,46.12
2023-05-12T02:35:45.888Z,46.18
2023-05-12T02:45:52.927Z,46.21
2023-05-12T02:55:59.710Z,46.14
2023-05-12T03:06:07.065Z,46.08
2023-05-12T03:16:14.015Z,46.04
2023-05-12T03:26:20.762Z,46.07
2023-05-12T03:36:27.979Z,46.07
2023-05-12T03:46:35.356Z,46.08
2023-05-12T03:56:43.205Z,45.99
2023-05-12T04:06:50.215Z,45.91
2023-05-12T04:16:57.161Z,45.89
2023-05-12T04:27:04.690Z,45.89
2023-05-12T04:37:11.607Z,45.93
2023-05-12T04:47:19.281Z,45.92
2023-05-12T04:57:26.615Z,45.93
2023-05-12T05:07:33.386Z,46.07
2023-05-12T05:17:40.672Z,46.32
2023-05-12T05:27:47.243Z,46.99
2023-05-12T05:37:54.372Z,47.65
2023-05-12T05:48:01.636Z,48.16
2023-05-12T05:58:09.086Z,48.53
2023-05-12T06:08:16.527Z,48.91
2023-05-12T06:18:23.593Z,48.74
2023-05-12T06:28:31.072Z,48.26
2023-05-12T06:38:37.723Z,48.13
2023-05-12T06:48:44.856Z,46.83
2023-05-12T06:58:52.386Z,45.89
2023-05-12T07:08:59.320Z,45.53
2023-05-12T07:19:06.905Z,45.13
2023-05-12T07:29:14.174Z,44.84
2023-05-12T07:39:21.176Z,44.72
2023-05-12T07:49:28.311Z,44.65
2023-05-12T07:59:35.762Z,44.53
2023-05-12T08:09:42.394Z,44.53
2023-05-12T08:19:49.159Z,44.56
2023-05-12T08:29:56.564Z,44.50
2023-05-12T08:40:03.562Z,44.50
2023-05-12T08:50:10.249Z,44.57
2023-05-12T09:00:16.556Z,44.56
2023-05-12T09:10:34.464Z,44.36
2023-05-12T09:20:35.360Z,44.60
2023-05-12T09:30:43.001Z,44.11
2023-05-12T09:40:49.457Z,44.15
2023-05-12T09:50:56.716Z,44.07
2023-05-12T10:01:20.900Z,44.01
2023-05-12T10:11:15.858Z,36.65
2023-05-12T10:21:23.119Z,36.09
2023-05-12T10:31:30.257Z,38.73
2023-05-12T10:41:37.732Z,40.68
2023-05-12T10:51:44.882Z,42.15
2023-05-12T11:01:51.135Z,43.00
2023-05-12T11:12:00.098Z,43.54
2023-05-12T11:22:07.338Z,43.96
2023-05-12T11:32:14.592Z,44.21
2023-05-12T11:42:23.470Z,44.64
2023-05-12T11:52:31.200Z,43.70
2023-05-12T12:02:38.727Z,43.86
2023-05-12T12:12:46.652Z,42.63
2023-05-12T12:22:53.351Z,41.53
2023-05-12T12:33:00.814Z,40.67
2023-05-12T12:43:08.684Z,40.00
2023-05-12T12:53:16.463Z,32.09
2023-05-12T13:03:23.412Z,30.63
2023-05-12T13:13:30.751Z,30.71
2023-05-12T13:23:37.811Z,31.17
2023-05-12T13:33:44.608Z,31.52
2023-05-12T13:43:51.768Z,33.73
2023-05-12T13:53:59.036Z,35.58
2023-05-12T14:04:06.105Z,36.58
2023-05-12T14:14:13.537Z,37.50
2023-05-12T14:24:19.848Z,38.29
2023-05-12T14:34:26.968Z,38.86
2023-05-12T14:44:34.135Z,39.31
2023-05-12T14:54:40.914Z,39.79
2023-05-12T15:04:48.330Z,40.59
2023-05-12T15:14:55.145Z,41.90
2023-05-12T15:25:02.091Z,42.66
2023-05-12T15:35:09.195Z,42.95
2023-05-12T15:45:16.584Z,42.84
2023-05-12T15:55:23.433Z,42.80
2023-05-12T16:05:31.270Z,42.83
2023-05-12T16:15:38.582Z,42.86
2023-05-12T16:25:45.694Z,42.73
2023-05-12T16:35:52.739Z,42.63
2023-05-12T16:45:59.264Z,42.79
2023-05-12T16:56:06.562Z,42.89
2023-05-12T17:06:13.652Z,43.20
2023-05-12T17:16:20.992Z,43.52
2023-05-12T17:26:28.684Z,43.70
2023-05-12T17:36:35.484Z,43.79
2023-05-12T17:46:42.523Z,43.90
2023-05-12T17:56:50.148Z,44.12
2023-05-12T18:06:57.451Z,45.13
2023-05-12T18:17:04.624Z,46.51
2023-05-12T18:27:11.910Z,47.20
2023-05-12T18:37:19.061Z,47.54
2023-05-12T18:47:26.160Z,47.77
2023-05-12T18:57:33.056Z,47.89
2023-05-12T19:07:40.506Z,47.94
2023-05-12T19:17:47.408Z,48.03
2023-05-12T19:27:54.310Z,48.12
2023-05-12T19:38:01.211Z,48.22
2023-05-12T19:48:08.247Z,48.35
2023-05-12T19:58:15.030Z,48.44
2023-05-12T20:08:21.693Z,48.44
2023-05-12T20:18:28.483Z,48.42
2023-05-12T20:28:35.398Z,48.22
2023-05-12T20:38:42.548Z,47.98
2023-05-12T20:48:49.249Z,47.82
2023-05-12T20:58:55.821Z,47.66
2023-05-12T21:09:03.017Z,47.44
2023-05-12T21:19:09.753Z,47.18
2023-05-12T21:29:16.886Z,46.74
2023-05-12T21:39:23.879Z,46.52
2023-05-12T21:49:31.026Z,46.33
2023-05-12T21:59:38.209Z,46.20
2023-05-12T22:09:45.249Z,46.07
2023-05-12T22:19:52.689Z,45.99
2023-05-12T22:29:59.786Z,45.88
2023-05-12T22:40:07.250Z,45.79
2023-05-12T22:50:14.348Z,45.72
2023-05-12T23:00:21.361Z,45.63
2023-05-12T23:10:28.139Z,45.56
2023-05-12T23:20:35.191Z,45.49
2023-05-12T23:30:41.995Z,45.32
2023-05-12T23:40:49.059Z,45.22
2023-05-12T23:50:56.205Z,45.21
